Terminal Aerodrome Forecast
Issued by NWS Northern Indiana

Home | Current Version | Previous Version | Text Only | Print | Product List | Glossary On
Versions: 1 2 3 4 5 6 7 8 9 10 11 12
170
FTUS43 KIWX 281735
TAFFWA
TAF
KFWA 281735Z 2818/2918 VRB03KT P6SM SCT050 BKN150
     FM290200 05004KT P6SM VCSH BKN050
     FM290800 VRB03KT P6SM BKN150=

USA.gov is the U.S. government's official web portal to all federal, state and local government web resources and services.